sensor_id;sensor_type;location;lat;lon;timestamp;P1;durP1;ratioP1;P2;durP2;ratioP2
20344;SDS011;10330;48.816;9.278;2024-01-27T00:02:19;5.53;;;2.55;;
20344;SDS011;10330;48.816;9.278;2024-01-27T00:04:45;5.57;;;2.45;;
20344;SDS011;10330;48.816;9.278;2024-01-27T00:07:11;8.60;;;3.85;;
20344;SDS011;10330;48.816;9.278;2024-01-27T00:09:38;2.53;;;2.10;;
20344;SDS011;10330;48.816;9.278;2024-01-27T00:12:05;2.85;;;2.35;;
20344;SDS011;10330;48.816;9.278;2024-01-27T00:14:32;2.72;;;2.30;;
20344;SDS011;10330;48.816;9.278;2024-01-27T00:16:58;11.23;;;4.18;;
20344;SDS011;10330;48.816;9.278;2024-01-27T00:19:24;5.32;;;2.72;;
20344;SDS011;10330;48.816;9.278;2024-01-27T00:21:50;7.68;;;2.10;;
20344;SDS011;10330;48.816;9.278;2024-01-27T00:24:17;8.07;;;2.35;;
20344;SDS011;10330;48.816;9.278;2024-01-27T00:26:43;2.35;;;2.15;;
20344;SDS011;10330;48.816;9.278;2024-01-27T00:29:10;9.00;;;3.30;;
20344;SDS011;10330;48.816;9.278;2024-01-27T00:31:36;5.78;;;3.38;;
20344;SDS011;10330;48.816;9.278;2024-01-27T00:34:02;2.53;;;2.28;;
20344;SDS011;10330;48.816;9.278;2024-01-27T00:36:28;6.13;;;2.35;;
20344;SDS011;10330;48.816;9.278;2024-01-27T00:38:55;4.45;;;2.17;;
20344;SDS011;10330;48.816;9.278;2024-01-27T00:41:21;5.60;;;2.00;;
20344;SDS011;10330;48.816;9.278;2024-01-27T00:43:48;5.60;;;2.53;;
20344;SDS011;10330;48.816;9.278;2024-01-27T00:46:14;6.32;;;2.83;;
20344;SDS011;10330;48.816;9.278;2024-01-27T00:48:40;9.40;;;2.45;;
20344;SDS011;10330;48.816;9.278;2024-01-27T00:51:06;3.85;;;2.70;;
20344;SDS011;10330;48.816;9.278;2024-01-27T00:53:32;5.95;;;2.03;;
20344;SDS011;10330;48.816;9.278;2024-01-27T00:55:59;6.10;;;2.42;;
20344;SDS011;10330;48.816;9.278;2024-01-27T00:58:25;8.32;;;2.60;;
20344;SDS011;10330;48.816;9.278;2024-01-27T01:00:51;26.58;;;10.23;;
20344;SDS011;10330;48.816;9.278;2024-01-27T01:03:17;7.88;;;3.55;;
20344;SDS011;10330;48.816;9.278;2024-01-27T01:05:44;4.72;;;2.58;;
20344;SDS011;10330;48.816;9.278;2024-01-27T01:08:10;6.72;;;2.47;;
20344;SDS011;10330;48.816;9.278;2024-01-27T01:10:36;9.20;;;2.40;;
20344;SDS011;10330;48.816;9.278;2024-01-27T01:13:02;3.53;;;2.28;;
20344;SDS011;10330;48.816;9.278;2024-01-27T01:15:29;5.63;;;2.25;;
20344;SDS011;10330;48.816;9.278;2024-01-27T01:17:55;4.47;;;2.38;;
20344;SDS011;10330;48.816;9.278;2024-01-27T01:20:21;3.45;;;2.05;;
20344;SDS011;10330;48.816;9.278;2024-01-27T01:22:47;5.32;;;2.10;;
20344;SDS011;10330;48.816;9.278;2024-01-27T01:25:14;10.48;;;2.60;;
20344;SDS011;10330;48.816;9.278;2024-01-27T01:27:40;5.50;;;2.40;;
20344;SDS011;10330;48.816;9.278;2024-01-27T01:30:06;4.75;;;2.63;;
20344;SDS011;10330;48.816;9.278;2024-01-27T01:32:33;5.57;;;2.30;;
20344;SDS011;10330;48.816;9.278;2024-01-27T01:35:00;8.85;;;2.35;;
20344;SDS011;10330;48.816;9.278;2024-01-27T01:37:26;3.67;;;2.60;;
20344;SDS011;10330;48.816;9.278;2024-01-27T01:39:52;7.93;;;2.97;;
20344;SDS011;10330;48.816;9.278;2024-01-27T01:42:19;5.57;;;2.15;;
20344;SDS011;10330;48.816;9.278;2024-01-27T01:44:48;7.25;;;2.70;;
20344;SDS011;10330;48.816;9.278;2024-01-27T01:47:14;2.95;;;2.08;;
20344;SDS011;10330;48.816;9.278;2024-01-27T01:49:41;3.72;;;3.30;;
20344;SDS011;10330;48.816;9.278;2024-01-27T01:52:07;3.90;;;2.60;;
20344;SDS011;10330;48.816;9.278;2024-01-27T01:54:34;5.78;;;2.40;;
20344;SDS011;10330;48.816;9.278;2024-01-27T01:57:00;2.58;;;2.17;;
20344;SDS011;10330;48.816;9.278;2024-01-27T01:59:27;5.72;;;2.33;;
20344;SDS011;10330;48.816;9.278;2024-01-27T02:01:53;8.45;;;2.70;;
20344;SDS011;10330;48.816;9.278;2024-01-27T02:04:20;5.53;;;2.33;;
20344;SDS011;10330;48.816;9.278;2024-01-27T02:06:46;5.57;;;2.47;;
20344;SDS011;10330;48.816;9.278;2024-01-27T02:09:13;9.23;;;2.10;;
20344;SDS011;10330;48.816;9.278;2024-01-27T02:11:39;4.57;;;2.42;;
20344;SDS011;10330;48.816;9.278;2024-01-27T02:14:05;3.70;;;2.38;;
20344;SDS011;10330;48.816;9.278;2024-01-27T02:16:32;8.82;;;2.33;;
20344;SDS011;10330;48.816;9.278;2024-01-27T02:18:58;5.35;;;2.78;;
20344;SDS011;10330;48.816;9.278;2024-01-27T02:21:24;2.88;;;2.10;;
20344;SDS011;10330;48.816;9.278;2024-01-27T02:23:50;6.05;;;2.78;;
20344;SDS011;10330;48.816;9.278;2024-01-27T02:26:17;6.93;;;2.63;;
20344;SDS011;10330;48.816;9.278;2024-01-27T02:28:43;9.52;;;2.80;;
20344;SDS011;10330;48.816;9.278;2024-01-27T02:31:09;3.85;;;2.00;;
20344;SDS011;10330;48.816;9.278;2024-01-27T02:33:35;4.55;;;2.35;;
20344;SDS011;10330;48.816;9.278;2024-01-27T02:36:01;4.93;;;2.50;;
20344;SDS011;10330;48.816;9.278;2024-01-27T02:38:27;4.05;;;2.20;;
20344;SDS011;10330;48.816;9.278;2024-01-27T02:40:54;7.72;;;3.08;;
20344;SDS011;10330;48.816;9.278;2024-01-27T02:43:20;4.65;;;2.40;;
20344;SDS011;10330;48.816;9.278;2024-01-27T02:45:46;5.78;;;2.53;;
20344;SDS011;10330;48.816;9.278;2024-01-27T02:48:12;5.88;;;3.15;;
20344;SDS011;10330;48.816;9.278;2024-01-27T02:50:38;7.57;;;2.20;;
20344;SDS011;10330;48.816;9.278;2024-01-27T02:53:04;6.38;;;2.20;;
20344;SDS011;10330;48.816;9.278;2024-01-27T02:55:30;5.55;;;2.50;;
20344;SDS011;10330;48.816;9.278;2024-01-27T02:57:57;4.60;;;2.53;;
20344;SDS011;10330;48.816;9.278;2024-01-27T03:00:23;5.40;;;2.47;;
20344;SDS011;10330;48.816;9.278;2024-01-27T03:02:49;3.88;;;2.30;;
20344;SDS011;10330;48.816;9.278;2024-01-27T03:05:15;5.47;;;2.58;;
20344;SDS011;10330;48.816;9.278;2024-01-27T03:07:41;3.40;;;3.03;;
20344;SDS011;10330;48.816;9.278;2024-01-27T03:10:07;6.20;;;3.72;;
20344;SDS011;10330;48.816;9.278;2024-01-27T03:12:34;6.38;;;3.67;;
20344;SDS011;10330;48.816;9.278;2024-01-27T03:15:00;7.30;;;3.63;;
20344;SDS011;10330;48.816;9.278;2024-01-27T03:17:26;10.05;;;3.40;;
20344;SDS011;10330;48.816;9.278;2024-01-27T03:19:52;4.30;;;3.85;;
20344;SDS011;10330;48.816;9.278;2024-01-27T03:22:19;12.10;;;3.78;;
20344;SDS011;10330;48.816;9.278;2024-01-27T03:24:45;8.55;;;3.63;;
20344;SDS011;10330;48.816;9.278;2024-01-27T03:27:11;10.95;;;3.60;;
20344;SDS011;10330;48.816;9.278;2024-01-27T03:29:37;11.95;;;3.70;;
20344;SDS011;10330;48.816;9.278;2024-01-27T03:32:04;4.05;;;2.90;;
20344;SDS011;10330;48.816;9.278;2024-01-27T03:34:31;7.95;;;2.97;;
20344;SDS011;10330;48.816;9.278;2024-01-27T03:36:57;5.38;;;2.60;;
20344;SDS011;10330;48.816;9.278;2024-01-27T03:39:26;4.32;;;3.00;;
20344;SDS011;10330;48.816;9.278;2024-01-27T03:41:52;8.55;;;3.58;;
20344;SDS011;10330;48.816;9.278;2024-01-27T03:44:18;2.97;;;2.75;;
20344;SDS011;10330;48.816;9.278;2024-01-27T03:46:44;5.60;;;2.47;;
20344;SDS011;10330;48.816;9.278;2024-01-27T03:49:10;4.30;;;2.80;;
20344;SDS011;10330;48.816;9.278;2024-01-27T03:51:36;5.88;;;2.92;;
20344;SDS011;10330;48.816;9.278;2024-01-27T03:54:03;9.65;;;3.53;;
20344;SDS011;10330;48.816;9.278;2024-01-27T03:56:29;24.63;;;3.33;;
20344;SDS011;10330;48.816;9.278;2024-01-27T03:58:55;11.02;;;3.70;;
20344;SDS011;10330;48.816;9.278;2024-01-27T04:01:21;5.85;;;3.58;;
20344;SDS011;10330;48.816;9.278;2024-01-27T04:03:47;10.10;;;3.30;;
20344;SDS011;10330;48.816;9.278;2024-01-27T04:06:14;3.03;;;2.70;;
20344;SDS011;10330;48.816;9.278;2024-01-27T04:08:40;9.20;;;2.83;;
20344;SDS011;10330;48.816;9.278;2024-01-27T04:11:09;7.55;;;3.20;;
20344;SDS011;10330;48.816;9.278;2024-01-27T04:13:43;5.53;;;2.90;;
20344;SDS011;10330;48.816;9.278;2024-01-27T04:16:10;20.92;;;4.03;;
20344;SDS011;10330;48.816;9.278;2024-01-27T04:18:38;13.48;;;3.03;;
20344;SDS011;10330;48.816;9.278;2024-01-27T04:21:06;7.85;;;3.13;;
20344;SDS011;10330;48.816;9.278;2024-01-27T04:23:32;5.32;;;3.10;;
20344;SDS011;10330;48.816;9.278;2024-01-27T04:25:59;12.68;;;3.88;;
20344;SDS011;10330;48.816;9.278;2024-01-27T04:28:25;8.07;;;2.75;;
20344;SDS011;10330;48.816;9.278;2024-01-27T04:30:52;5.50;;;2.72;;
20344;SDS011;10330;48.816;9.278;2024-01-27T04:33:18;7.43;;;3.28;;
20344;SDS011;10330;48.816;9.278;2024-01-27T04:35:44;6.75;;;3.30;;
20344;SDS011;10330;48.816;9.278;2024-01-27T04:38:10;6.15;;;2.85;;
20344;SDS011;10330;48.816;9.278;2024-01-27T04:40:36;9.82;;;3.50;;
20344;SDS011;10330;48.816;9.278;2024-01-27T04:43:02;6.65;;;3.33;;
20344;SDS011;10330;48.816;9.278;2024-01-27T04:45:29;9.45;;;4.07;;
20344;SDS011;10330;48.816;9.278;2024-01-27T04:47:55;10.15;;;3.60;;
20344;SDS011;10330;48.816;9.278;2024-01-27T04:50:21;10.70;;;3.10;;
20344;SDS011;10330;48.816;9.278;2024-01-27T04:52:51;8.18;;;3.25;;
20344;SDS011;10330;48.816;9.278;2024-01-27T04:55:17;2.85;;;2.58;;
20344;SDS011;10330;48.816;9.278;2024-01-27T04:57:43;7.13;;;3.15;;
20344;SDS011;10330;48.816;9.278;2024-01-27T05:00:10;4.60;;;3.13;;
20344;SDS011;10330;48.816;9.278;2024-01-27T05:02:41;8.73;;;3.60;;
20344;SDS011;10330;48.816;9.278;2024-01-27T05:05:07;6.45;;;2.90;;
20344;SDS011;10330;48.816;9.278;2024-01-27T05:07:34;14.55;;;3.28;;
20344;SDS011;10330;48.816;9.278;2024-01-27T05:10:00;6.13;;;3.25;;
20344;SDS011;10330;48.816;9.278;2024-01-27T05:12:26;5.63;;;2.97;;
20344;SDS011;10330;48.816;9.278;2024-01-27T05:14:53;8.57;;;2.78;;
20344;SDS011;10330;48.816;9.278;2024-01-27T05:17:19;3.60;;;2.70;;
20344;SDS011;10330;48.816;9.278;2024-01-27T05:19:45;4.82;;;2.75;;
20344;SDS011;10330;48.816;9.278;2024-01-27T05:22:11;5.32;;;2.38;;
20344;SDS011;10330;48.816;9.278;2024-01-27T05:24:37;8.02;;;2.88;;
20344;SDS011;10330;48.816;9.278;2024-01-27T05:27:03;10.70;;;3.10;;
20344;SDS011;10330;48.816;9.278;2024-01-27T05:29:30;4.47;;;3.03;;
20344;SDS011;10330;48.816;9.278;2024-01-27T05:31:56;4.88;;;2.80;;
20344;SDS011;10330;48.816;9.278;2024-01-27T05:34:22;4.70;;;3.03;;
20344;SDS011;10330;48.816;9.278;2024-01-27T05:36:48;2.70;;;2.50;;
20344;SDS011;10330;48.816;9.278;2024-01-27T05:39:14;7.95;;;2.78;;
20344;SDS011;10330;48.816;9.278;2024-01-27T05:41:41;7.70;;;3.33;;
20344;SDS011;10330;48.816;9.278;2024-01-27T05:44:07;4.45;;;3.13;;
20344;SDS011;10330;48.816;9.278;2024-01-27T05:46:33;7.03;;;3.30;;
20344;SDS011;10330;48.816;9.278;2024-01-27T05:48:59;6.75;;;3.05;;
20344;SDS011;10330;48.816;9.278;2024-01-27T05:51:29;6.43;;;3.40;;
20344;SDS011;10330;48.816;9.278;2024-01-27T05:53:59;2.95;;;2.75;;
20344;SDS011;10330;48.816;9.278;2024-01-27T05:56:25;8.98;;;3.63;;
20344;SDS011;10330;48.816;9.278;2024-01-27T05:58:51;7.88;;;4.13;;
20344;SDS011;10330;48.816;9.278;2024-01-27T06:01:18;8.25;;;3.90;;
20344;SDS011;10330;48.816;9.278;2024-01-27T06:03:47;7.13;;;3.45;;
20344;SDS011;10330;48.816;9.278;2024-01-27T06:06:13;6.87;;;3.33;;
20344;SDS011;10330;48.816;9.278;2024-01-27T06:08:40;9.20;;;3.67;;
20344;SDS011;10330;48.816;9.278;2024-01-27T06:11:06;5.18;;;3.90;;
20344;SDS011;10330;48.816;9.278;2024-01-27T06:13:33;6.15;;;3.63;;
20344;SDS011;10330;48.816;9.278;2024-01-27T06:16:00;7.37;;;3.23;;
20344;SDS011;10330;48.816;9.278;2024-01-27T06:18:26;9.32;;;4.65;;
20344;SDS011;10330;48.816;9.278;2024-01-27T06:20:52;8.05;;;4.93;;
20344;SDS011;10330;48.816;9.278;2024-01-27T06:23:18;7.72;;;4.20;;
20344;SDS011;10330;48.816;9.278;2024-01-27T06:25:44;4.05;;;3.50;;
20344;SDS011;10330;48.816;9.278;2024-01-27T06:28:10;5.78;;;3.53;;
20344;SDS011;10330;48.816;9.278;2024-01-27T06:30:37;6.20;;;3.33;;
20344;SDS011;10330;48.816;9.278;2024-01-27T06:33:03;6.18;;;3.33;;
20344;SDS011;10330;48.816;9.278;2024-01-27T06:35:29;6.45;;;3.58;;
20344;SDS011;10330;48.816;9.278;2024-01-27T06:37:55;7.93;;;4.00;;
20344;SDS011;10330;48.816;9.278;2024-01-27T06:40:22;3.80;;;3.47;;
20344;SDS011;10330;48.816;9.278;2024-01-27T06:42:48;5.95;;;3.60;;
20344;SDS011;10330;48.816;9.278;2024-01-27T06:45:14;7.65;;;3.60;;
20344;SDS011;10330;48.816;9.278;2024-01-27T06:47:40;4.88;;;3.60;;
20344;SDS011;10330;48.816;9.278;2024-01-27T06:50:07;4.38;;;3.28;;
20344;SDS011;10330;48.816;9.278;2024-01-27T06:52:33;4.10;;;3.38;;
20344;SDS011;10330;48.816;9.278;2024-01-27T06:54:59;6.85;;;4.63;;
20344;SDS011;10330;48.816;9.278;2024-01-27T06:57:29;6.10;;;4.30;;
20344;SDS011;10330;48.816;9.278;2024-01-27T06:59:55;6.70;;;3.70;;
20344;SDS011;10330;48.816;9.278;2024-01-27T07:02:22;6.85;;;3.88;;
20344;SDS011;10330;48.816;9.278;2024-01-27T07:04:49;6.20;;;3.97;;
20344;SDS011;10330;48.816;9.278;2024-01-27T07:07:15;5.00;;;3.72;;
20344;SDS011;10330;48.816;9.278;2024-01-27T07:09:41;3.95;;;3.55;;
20344;SDS011;10330;48.816;9.278;2024-01-27T07:12:07;5.20;;;3.70;;
20344;SDS011;10330;48.816;9.278;2024-01-27T07:14:34;6.18;;;3.53;;
20344;SDS011;10330;48.816;9.278;2024-01-27T07:17:02;4.80;;;3.83;;
20344;SDS011;10330;48.816;9.278;2024-01-27T07:19:29;5.82;;;4.40;;
20344;SDS011;10330;48.816;9.278;2024-01-27T07:21:56;5.90;;;4.07;;
20344;SDS011;10330;48.816;9.278;2024-01-27T07:24:22;12.73;;;6.07;;
20344;SDS011;10330;48.816;9.278;2024-01-27T07:26:48;28.55;;;8.52;;
20344;SDS011;10330;48.816;9.278;2024-01-27T07:29:14;8.57;;;4.47;;
20344;SDS011;10330;48.816;9.278;2024-01-27T07:31:40;4.65;;;3.92;;
20344;SDS011;10330;48.816;9.278;2024-01-27T07:34:06;4.88;;;3.72;;
20344;SDS011;10330;48.816;9.278;2024-01-27T07:36:33;11.88;;;3.78;;
20344;SDS011;10330;48.816;9.278;2024-01-27T07:38:59;6.20;;;3.95;;
20344;SDS011;10330;48.816;9.278;2024-01-27T07:41:25;4.88;;;3.60;;
20344;SDS011;10330;48.816;9.278;2024-01-27T07:43:54;11.45;;;4.53;;
20344;SDS011;10330;48.816;9.278;2024-01-27T07:46:20;9.50;;;4.53;;
20344;SDS011;10330;48.816;9.278;2024-01-27T07:48:48;6.32;;;3.80;;
20344;SDS011;10330;48.816;9.278;2024-01-27T07:51:15;5.75;;;3.60;;
20344;SDS011;10330;48.816;9.278;2024-01-27T07:53:42;9.45;;;4.47;;
20344;SDS011;10330;48.816;9.278;2024-01-27T07:56:08;9.00;;;4.60;;
20344;SDS011;10330;48.816;9.278;2024-01-27T07:58:34;6.95;;;4.95;;
20344;SDS011;10330;48.816;9.278;2024-01-27T08:01:00;4.78;;;3.67;;
20344;SDS011;10330;48.816;9.278;2024-01-27T08:03:27;8.02;;;4.82;;
20344;SDS011;10330;48.816;9.278;2024-01-27T08:05:53;10.80;;;5.25;;
20344;SDS011;10330;48.816;9.278;2024-01-27T08:08:21;8.00;;;5.53;;
20344;SDS011;10330;48.816;9.278;2024-01-27T08:10:47;7.13;;;5.18;;
20344;SDS011;10330;48.816;9.278;2024-01-27T08:13:14;12.90;;;6.22;;
20344;SDS011;10330;48.816;9.278;2024-01-27T08:15:40;10.07;;;5.82;;
20344;SDS011;10330;48.816;9.278;2024-01-27T08:18:09;13.10;;;5.32;;
20344;SDS011;10330;48.816;9.278;2024-01-27T08:20:36;10.63;;;5.50;;
20344;SDS011;10330;48.816;9.278;2024-01-27T08:23:02;10.40;;;6.07;;
20344;SDS011;10330;48.816;9.278;2024-01-27T08:25:29;7.30;;;4.97;;
20344;SDS011;10330;48.816;9.278;2024-01-27T08:27:55;7.47;;;4.75;;
20344;SDS011;10330;48.816;9.278;2024-01-27T08:30:21;13.13;;;4.82;;
20344;SDS011;10330;48.816;9.278;2024-01-27T08:32:47;13.73;;;5.00;;
20344;SDS011;10330;48.816;9.278;2024-01-27T08:35:14;10.93;;;5.35;;
20344;SDS011;10330;48.816;9.278;2024-01-27T08:40:25;7.63;;;5.85;;
20344;SDS011;10330;48.816;9.278;2024-01-27T08:42:51;9.50;;;6.38;;
20344;SDS011;10330;48.816;9.278;2024-01-27T08:45:18;12.05;;;6.45;;
20344;SDS011;10330;48.816;9.278;2024-01-27T08:47:44;10.98;;;5.70;;
20344;SDS011;10330;48.816;9.278;2024-01-27T08:50:10;12.00;;;5.60;;
20344;SDS011;10330;48.816;9.278;2024-01-27T08:52:36;10.98;;;5.90;;
20344;SDS011;10330;48.816;9.278;2024-01-27T08:55:02;10.90;;;5.90;;
20344;SDS011;10330;48.816;9.278;2024-01-27T08:57:29;8.40;;;5.50;;
20344;SDS011;10330;48.816;9.278;2024-01-27T08:59:55;10.95;;;6.05;;
20344;SDS011;10330;48.816;9.278;2024-01-27T09:02:21;11.07;;;5.82;;
20344;SDS011;10330;48.816;9.278;2024-01-27T09:04:48;11.90;;;5.85;;
20344;SDS011;10330;48.816;9.278;2024-01-27T09:07:14;10.27;;;5.38;;
20344;SDS011;10330;48.816;9.278;2024-01-27T09:09:40;8.30;;;5.80;;
20344;SDS011;10330;48.816;9.278;2024-01-27T09:12:06;11.40;;;6.18;;
20344;SDS011;10330;48.816;9.278;2024-01-27T09:14:33;6.68;;;4.90;;
20344;SDS011;10330;48.816;9.278;2024-01-27T09:17:02;9.95;;;5.50;;
20344;SDS011;10330;48.816;9.278;2024-01-27T09:19:29;7.47;;;4.55;;
20344;SDS011;10330;48.816;9.278;2024-01-27T09:21:55;7.28;;;5.13;;
20344;SDS011;10330;48.816;9.278;2024-01-27T09:24:21;8.68;;;5.00;;
20344;SDS011;10330;48.816;9.278;2024-01-27T09:26:49;7.65;;;4.70;;
20344;SDS011;10330;48.816;9.278;2024-01-27T09:29:17;10.80;;;5.15;;
20344;SDS011;10330;48.816;9.278;2024-01-27T09:31:43;12.23;;;5.32;;
20344;SDS011;10330;48.816;9.278;2024-01-27T09:34:09;16.50;;;6.00;;
20344;SDS011;10330;48.816;9.278;2024-01-27T09:36:36;8.35;;;5.68;;
20344;SDS011;10330;48.816;9.278;2024-01-27T09:39:08;10.98;;;5.57;;
20344;SDS011;10330;48.816;9.278;2024-01-27T09:41:35;15.15;;;5.35;;
20344;SDS011;10330;48.816;9.278;2024-01-27T09:44:01;10.63;;;6.10;;
20344;SDS011;10330;48.816;9.278;2024-01-27T09:46:29;14.23;;;5.43;;
20344;SDS011;10330;48.816;9.278;2024-01-27T09:48:56;14.52;;;6.18;;
20344;SDS011;10330;48.816;9.278;2024-01-27T09:51:22;11.73;;;5.72;;
20344;SDS011;10330;48.816;9.278;2024-01-27T09:53:50;9.27;;;5.40;;
20344;SDS011;10330;48.816;9.278;2024-01-27T09:56:17;19.00;;;5.28;;
20344;SDS011;10330;48.816;9.278;2024-01-27T09:58:44;10.07;;;5.32;;
20344;SDS011;10330;48.816;9.278;2024-01-27T10:01:11;9.65;;;4.70;;
20344;SDS011;10330;48.816;9.278;2024-01-27T10:03:41;7.80;;;4.55;;
20344;SDS011;10330;48.816;9.278;2024-01-27T10:06:09;11.38;;;5.65;;
20344;SDS011;10330;48.816;9.278;2024-01-27T10:08:36;21.52;;;5.60;;
20344;SDS011;10330;48.816;9.278;2024-01-27T10:11:09;7.03;;;4.30;;
20344;SDS011;10330;48.816;9.278;2024-01-27T10:13:36;16.05;;;4.07;;
20344;SDS011;10330;48.816;9.278;2024-01-27T10:16:11;7.60;;;3.60;;
20344;SDS011;10330;48.816;9.278;2024-01-27T10:18:38;11.60;;;3.60;;
20344;SDS011;10330;48.816;9.278;2024-01-27T10:21:14;6.25;;;4.28;;
20344;SDS011;10330;48.816;9.278;2024-01-27T10:23:41;9.95;;;3.92;;
20344;SDS011;10330;48.816;9.278;2024-01-27T10:26:11;6.93;;;3.40;;
20344;SDS011;10330;48.816;9.278;2024-01-27T10:28:37;10.68;;;3.58;;
20344;SDS011;10330;48.816;9.278;2024-01-27T10:31:10;12.52;;;4.45;;
20344;SDS011;10330;48.816;9.278;2024-01-27T10:33:36;9.07;;;4.18;;
20344;SDS011;10330;48.816;9.278;2024-01-27T10:36:03;8.70;;;3.65;;
20344;SDS011;10330;48.816;9.278;2024-01-27T10:38:34;11.63;;;4.57;;
20344;SDS011;10330;48.816;9.278;2024-01-27T10:41:07;9.85;;;4.53;;
20344;SDS011;10330;48.816;9.278;2024-01-27T10:43:38;14.38;;;4.68;;
20344;SDS011;10330;48.816;9.278;2024-01-27T10:46:05;12.70;;;5.07;;
20344;SDS011;10330;48.816;9.278;2024-01-27T10:48:36;8.50;;;5.35;;
20344;SDS011;10330;48.816;9.278;2024-01-27T10:51:03;5.57;;;3.90;;
20344;SDS011;10330;48.816;9.278;2024-01-27T10:53:34;11.10;;;4.70;;
20344;SDS011;10330;48.816;9.278;2024-01-27T10:56:03;10.85;;;4.10;;
20344;SDS011;10330;48.816;9.278;2024-01-27T10:58:35;6.05;;;4.20;;
20344;SDS011;10330;48.816;9.278;2024-01-27T11:01:12;8.00;;;4.18;;
20344;SDS011;10330;48.816;9.278;2024-01-27T11:03:39;5.30;;;3.38;;
20344;SDS011;10330;48.816;9.278;2024-01-27T11:06:07;6.88;;;3.63;;
20344;SDS011;10330;48.816;9.278;2024-01-27T11:08:34;7.78;;;3.58;;
20344;SDS011;10330;48.816;9.278;2024-01-27T11:11:00;8.38;;;3.47;;
20344;SDS011;10330;48.816;9.278;2024-01-27T11:13:28;9.68;;;3.70;;
20344;SDS011;10330;48.816;9.278;2024-01-27T11:15:58;8.18;;;4.00;;
20344;SDS011;10330;48.816;9.278;2024-01-27T11:18:25;8.82;;;4.03;;
20344;SDS011;10330;48.816;9.278;2024-01-27T11:20:56;11.95;;;3.70;;
20344;SDS011;10330;48.816;9.278;2024-01-27T11:23:33;8.25;;;2.88;;
20344;SDS011;10330;48.816;9.278;2024-01-27T11:26:07;6.75;;;3.53;;
20344;SDS011;10330;48.816;9.278;2024-01-27T11:28:34;5.55;;;3.40;;
20344;SDS011;10330;48.816;9.278;2024-01-27T11:31:05;19.23;;;4.47;;
20344;SDS011;10330;48.816;9.278;2024-01-27T11:33:33;8.60;;;3.58;;
20344;SDS011;10330;48.816;9.278;2024-01-27T11:36:14;20.67;;;6.82;;
20344;SDS011;10330;48.816;9.278;2024-01-27T11:38:48;8.32;;;3.80;;
20344;SDS011;10330;48.816;9.278;2024-01-27T11:41:26;17.55;;;4.55;;
20344;SDS011;10330;48.816;9.278;2024-01-27T11:43:58;28.15;;;5.65;;
20344;SDS011;10330;48.816;9.278;2024-01-27T11:46:27;6.88;;;3.30;;
20344;SDS011;10330;48.816;9.278;2024-01-27T11:48:54;8.13;;;3.15;;
20344;SDS011;10330;48.816;9.278;2024-01-27T11:51:20;8.07;;;2.90;;
20344;SDS011;10330;48.816;9.278;2024-01-27T11:53:48;5.93;;;3.30;;
20344;SDS011;10330;48.816;9.278;2024-01-27T11:56:14;8.40;;;3.42;;
20344;SDS011;10330;48.816;9.278;2024-01-27T11:58:48;5.28;;;4.03;;
20344;SDS011;10330;48.816;9.278;2024-01-27T12:01:15;7.63;;;3.22;;
20344;SDS011;10330;48.816;9.278;2024-01-27T12:03:42;8.85;;;3.28;;
20344;SDS011;10330;48.816;9.278;2024-01-27T12:06:08;6.93;;;3.55;;
20344;SDS011;10330;48.816;9.278;2024-01-27T12:08:35;12.68;;;3.42;;
20344;SDS011;10330;48.816;9.278;2024-01-27T12:11:01;19.58;;;3.55;;
20344;SDS011;10330;48.816;9.278;2024-01-27T12:13:28;7.35;;;2.90;;
20344;SDS011;10330;48.816;9.278;2024-01-27T12:15:54;8.25;;;3.58;;
20344;SDS011;10330;48.816;9.278;2024-01-27T12:18:21;7.72;;;3.05;;
20344;SDS011;10330;48.816;9.278;2024-01-27T12:20:47;10.73;;;3.45;;
20344;SDS011;10330;48.816;9.278;2024-01-27T12:23:19;4.43;;;3.30;;
20344;SDS011;10330;48.816;9.278;2024-01-27T12:25:52;14.70;;;3.53;;
20344;SDS011;10330;48.816;9.278;2024-01-27T12:28:20;12.60;;;3.78;;
20344;SDS011;10330;48.816;9.278;2024-01-27T12:30:47;7.20;;;3.05;;
20344;SDS011;10330;48.816;9.278;2024-01-27T12:33:14;9.00;;;2.70;;
20344;SDS011;10330;48.816;9.278;2024-01-27T12:35:40;10.55;;;2.65;;
20344;SDS011;10330;48.816;9.278;2024-01-27T12:38:06;5.47;;;3.00;;
20344;SDS011;10330;48.816;9.278;2024-01-27T12:40:33;13.82;;;3.50;;
20344;SDS011;10330;48.816;9.278;2024-01-27T12:42:59;6.53;;;3.67;;
20344;SDS011;10330;48.816;9.278;2024-01-27T12:45:25;11.30;;;3.50;;
20344;SDS011;10330;48.816;9.278;2024-01-27T12:47:54;10.25;;;3.17;;
20344;SDS011;10330;48.816;9.278;2024-01-27T12:50:20;9.05;;;3.40;;
20344;SDS011;10330;48.816;9.278;2024-01-27T12:52:47;8.73;;;3.17;;
20344;SDS011;10330;48.816;9.278;2024-01-27T12:55:13;14.23;;;3.88;;
20344;SDS011;10330;48.816;9.278;2024-01-27T12:57:39;11.90;;;3.60;;
20344;SDS011;10330;48.816;9.278;2024-01-27T13:00:06;14.35;;;2.85;;
20344;SDS011;10330;48.816;9.278;2024-01-27T13:02:36;8.38;;;2.97;;
20344;SDS011;10330;48.816;9.278;2024-01-27T13:05:03;6.72;;;3.10;;
20344;SDS011;10330;48.816;9.278;2024-01-27T13:07:29;7.47;;;3.15;;
20344;SDS011;10330;48.816;9.278;2024-01-27T13:09:56;9.75;;;3.10;;
20344;SDS011;10330;48.816;9.278;2024-01-27T13:12:22;8.80;;;2.80;;
20344;SDS011;10330;48.816;9.278;2024-01-27T13:14:48;4.82;;;2.92;;
20344;SDS011;10330;48.816;9.278;2024-01-27T13:17:14;14.50;;;3.38;;
20344;SDS011;10330;48.816;9.278;2024-01-27T13:19:41;12.73;;;3.35;;
20344;SDS011;10330;48.816;9.278;2024-01-27T13:22:07;14.82;;;3.33;;
20344;SDS011;10330;48.816;9.278;2024-01-27T13:24:34;9.18;;;3.15;;
20344;SDS011;10330;48.816;9.278;2024-01-27T13:27:01;7.80;;;2.63;;
20344;SDS011;10330;48.816;9.278;2024-01-27T13:29:28;9.02;;;2.67;;
20344;SDS011;10330;48.816;9.278;2024-01-27T13:31:54;19.70;;;8.10;;
20344;SDS011;10330;48.816;9.278;2024-01-27T13:34:20;12.73;;;5.97;;
20344;SDS011;10330;48.816;9.278;2024-01-27T13:36:47;7.70;;;1.90;;
20344;SDS011;10330;48.816;9.278;2024-01-27T13:39:14;14.45;;;5.30;;
20344;SDS011;10330;48.816;9.278;2024-01-27T13:41:40;11.82;;;6.07;;
20344;SDS011;10330;48.816;9.278;2024-01-27T13:44:06;27.38;;;10.27;;
20344;SDS011;10330;48.816;9.278;2024-01-27T13:49:03;29.17;;;6.25;;
20344;SDS011;10330;48.816;9.278;2024-01-27T13:51:30;13.02;;;4.15;;
20344;SDS011;10330;48.816;9.278;2024-01-27T13:53:56;3.88;;;2.45;;
20344;SDS011;10330;48.816;9.278;2024-01-27T13:56:22;5.53;;;2.95;;
20344;SDS011;10330;48.816;9.278;2024-01-27T13:58:48;8.63;;;2.63;;
20344;SDS011;10330;48.816;9.278;2024-01-27T14:01:15;6.53;;;1.90;;
20344;SDS011;10330;48.816;9.278;2024-01-27T14:03:41;6.32;;;2.22;;
20344;SDS011;10330;48.816;9.278;2024-01-27T14:06:08;4.75;;;2.40;;
20344;SDS011;10330;48.816;9.278;2024-01-27T14:08:38;6.40;;;2.25;;
20344;SDS011;10330;48.816;9.278;2024-01-27T14:11:05;4.97;;;3.13;;
20344;SDS011;10330;48.816;9.278;2024-01-27T14:13:31;6.43;;;2.15;;
20344;SDS011;10330;48.816;9.278;2024-01-27T14:15:58;10.90;;;2.80;;
20344;SDS011;10330;48.816;9.278;2024-01-27T14:18:24;11.73;;;2.70;;
20344;SDS011;10330;48.816;9.278;2024-01-27T14:20:50;3.28;;;2.20;;
20344;SDS011;10330;48.816;9.278;2024-01-27T14:23:16;6.07;;;2.15;;
20344;SDS011;10330;48.816;9.278;2024-01-27T14:25:43;4.03;;;2.10;;
20344;SDS011;10330;48.816;9.278;2024-01-27T14:28:09;3.88;;;2.10;;
20344;SDS011;10330;48.816;9.278;2024-01-27T14:30:36;9.55;;;2.03;;
20344;SDS011;10330;48.816;9.278;2024-01-27T14:33:04;8.95;;;2.03;;
20344;SDS011;10330;48.816;9.278;2024-01-27T14:35:30;2.95;;;2.00;;
20344;SDS011;10330;48.816;9.278;2024-01-27T14:37:56;11.15;;;2.35;;
20344;SDS011;10330;48.816;9.278;2024-01-27T14:40:23;6.05;;;2.10;;
20344;SDS011;10330;48.816;9.278;2024-01-27T14:42:51;6.75;;;3.08;;
20344;SDS011;10330;48.816;9.278;2024-01-27T14:45:18;5.38;;;3.00;;
20344;SDS011;10330;48.816;9.278;2024-01-27T14:47:45;4.60;;;1.73;;